createdAt,value
2023-07-27T00:00:59.117Z,4.43
2023-07-27T00:03:28.478Z,4.50
2023-07-27T00:05:59.566Z,4.60
2023-07-27T00:08:31.015Z,4.60
2023-07-27T00:11:02.263Z,4.30
2023-07-27T00:13:32.991Z,4.90
2023-07-27T00:16:04.369Z,4.65
2023-07-27T00:18:33.520Z,4.68
2023-07-27T00:21:02.649Z,4.53
2023-07-27T00:23:31.790Z,4.97
2023-07-27T00:26:00.999Z,4.90
2023-07-27T00:28:30.177Z,4.47
2023-07-27T00:30:59.339Z,4.20
2023-07-27T00:33:28.436Z,4.22
2023-07-27T00:35:58.754Z,4.30
2023-07-27T00:38:29.602Z,4.28
2023-07-27T00:40:58.936Z,4.57
2023-07-27T00:43:28.154Z,4.88
2023-07-27T00:45:57.790Z,4.97
2023-07-27T00:48:26.917Z,4.75
2023-07-27T00:50:57.083Z,4.45
2023-07-27T00:53:26.799Z,4.70
2023-07-27T00:55:56.025Z,4.72
2023-07-27T00:58:25.510Z,5.55
2023-07-27T01:00:55.978Z,5.13
2023-07-27T01:03:25.399Z,5.32
2023-07-27T01:05:55.771Z,4.85
2023-07-27T01:08:24.933Z,5.03
2023-07-27T01:10:54.074Z,4.95
2023-07-27T01:13:41.666Z,5.60
2023-07-27T01:16:15.678Z,6.00
2023-07-27T01:18:51.462Z,5.47
2023-07-27T01:24:15.025Z,5.35
2023-07-27T01:27:02.898Z,5.80
2023-07-27T01:29:36.598Z,6.07
2023-07-27T01:32:07.907Z,6.90
2023-07-27T01:34:40.646Z,6.20
2023-07-27T01:37:12.902Z,6.72
2023-07-27T01:39:46.668Z,6.82
2023-07-27T01:42:17.820Z,6.35
2023-07-27T01:44:48.843Z,5.65
2023-07-27T01:47:19.542Z,6.22
2023-07-27T01:49:49.047Z,6.13
2023-07-27T01:52:18.900Z,5.85
2023-07-27T01:54:49.321Z,5.88
2023-07-27T01:57:19.123Z,5.55
2023-07-27T01:59:49.225Z,5.72
2023-07-27T02:02:18.600Z,5.45
2023-07-27T02:04:49.994Z,5.47
2023-07-27T02:07:23.774Z,6.18
2023-07-27T02:09:54.706Z,5.50
2023-07-27T02:12:41.586Z,5.30
2023-07-27T02:15:17.129Z,5.07
2023-07-27T02:17:58.535Z,5.45
2023-07-27T02:20:32.651Z,5.10
2023-07-27T02:23:03.152Z,5.03
2023-07-27T02:25:32.796Z,4.95
2023-07-27T02:28:02.017Z,5.22
2023-07-27T02:30:31.209Z,5.13
2023-07-27T02:33:00.344Z,5.03
2023-07-27T02:35:29.489Z,5.25
2023-07-27T02:37:59.072Z,4.47
2023-07-27T02:40:29.850Z,5.18
2023-07-27T02:42:59.376Z,4.75
2023-07-27T02:45:28.515Z,5.25
2023-07-27T02:47:57.593Z,4.95
2023-07-27T02:50:26.677Z,4.95
2023-07-27T02:53:01.983Z,4.78
2023-07-27T02:55:31.364Z,4.63
2023-07-27T02:58:03.099Z,4.88
2023-07-27T03:00:36.146Z,5.05
2023-07-27T03:03:07.059Z,4.88
2023-07-27T03:05:36.254Z,4.53
2023-07-27T03:08:05.436Z,4.93
2023-07-27T03:10:38.158Z,5.47
2023-07-27T03:13:07.339Z,4.72
2023-07-27T03:15:39.734Z,5.63
2023-07-27T03:18:08.896Z,5.38
2023-07-27T03:20:47.150Z,5.22
2023-07-27T03:23:16.442Z,6.07
2023-07-27T03:25:45.452Z,5.80
2023-07-27T03:28:14.488Z,5.20
2023-07-27T03:30:43.762Z,6.00
2023-07-27T03:33:12.881Z,5.80
2023-07-27T03:35:41.960Z,6.45
2023-07-27T03:38:11.792Z,5.63
2023-07-27T03:40:41.030Z,6.60
2023-07-27T03:43:10.121Z,6.13
2023-07-27T03:45:40.686Z,5.85
2023-07-27T03:48:10.054Z,6.47
2023-07-27T03:50:39.259Z,6.50
2023-07-27T03:53:08.631Z,6.63
2023-07-27T03:55:37.645Z,6.60
2023-07-27T03:58:06.954Z,6.40
2023-07-27T04:00:36.003Z,6.85
2023-07-27T04:03:05.104Z,6.78
2023-07-27T04:05:34.196Z,7.07
2023-07-27T04:08:03.840Z,7.40
2023-07-27T04:10:33.198Z,7.43
2023-07-27T04:13:02.323Z,7.15
2023-07-27T04:15:31.672Z,7.70
2023-07-27T04:18:01.028Z,7.28
2023-07-27T04:20:30.065Z,7.05
2023-07-27T04:22:59.151Z,6.95
2023-07-27T04:25:28.152Z,6.97
2023-07-27T04:27:57.259Z,6.30
2023-07-27T04:30:26.252Z,6.88
2023-07-27T04:32:55.425Z,6.82
2023-07-27T04:35:24.485Z,7.00
2023-07-27T04:37:53.687Z,6.68
2023-07-27T04:40:22.841Z,7.68
2023-07-27T04:42:51.935Z,7.63
2023-07-27T04:45:21.104Z,7.18
2023-07-27T04:47:50.224Z,7.10
2023-07-27T04:50:19.399Z,7.72
2023-07-27T04:52:48.448Z,6.57
2023-07-27T04:55:17.571Z,6.72
2023-07-27T04:57:46.652Z,6.72
2023-07-27T05:00:15.940Z,5.72
2023-07-27T05:02:45.114Z,4.97
2023-07-27T05:05:14.214Z,5.45
2023-07-27T05:07:43.275Z,4.93
2023-07-27T05:10:12.436Z,4.55
2023-07-27T05:12:42.022Z,4.43
2023-07-27T05:15:11.289Z,4.50
2023-07-27T05:17:40.406Z,4.80
2023-07-27T05:20:10.015Z,4.88
2023-07-27T05:22:39.071Z,4.10
2023-07-27T05:25:09.926Z,4.22
2023-07-27T05:27:39.095Z,4.00
2023-07-27T05:30:08.845Z,3.47
2023-07-27T05:32:38.572Z,3.60
2023-07-27T05:35:07.859Z,3.28
2023-07-27T05:37:37.157Z,3.88
2023-07-27T05:40:07.465Z,3.65
2023-07-27T05:42:36.595Z,3.13
2023-07-27T05:45:06.188Z,3.63
2023-07-27T05:47:35.329Z,3.20
2023-07-27T05:50:07.394Z,3.42
2023-07-27T05:52:36.624Z,2.90
2023-07-27T05:55:07.704Z,3.17
2023-07-27T05:57:38.331Z,3.35
2023-07-27T06:00:10.596Z,3.33
2023-07-27T06:02:39.891Z,3.17
2023-07-27T06:05:09.701Z,3.03
2023-07-27T06:07:38.833Z,3.33
2023-07-27T06:10:08.454Z,3.38
2023-07-27T06:12:37.669Z,3.95
2023-07-27T06:15:09.351Z,3.47
2023-07-27T06:17:40.339Z,3.38
2023-07-27T06:20:11.385Z,3.65
2023-07-27T06:22:42.150Z,3.38
2023-07-27T06:25:13.016Z,3.13
2023-07-27T06:27:45.323Z,3.72
2023-07-27T06:30:16.504Z,3.22
2023-07-27T06:32:47.400Z,3.15
2023-07-27T06:35:18.634Z,3.17
2023-07-27T06:37:49.824Z,3.33
2023-07-27T06:40:21.108Z,2.88
2023-07-27T06:42:52.416Z,3.15
2023-07-27T06:45:23.515Z,3.42
2023-07-27T06:47:55.312Z,3.42
2023-07-27T06:50:26.630Z,3.95
2023-07-27T06:52:57.870Z,3.70
2023-07-27T06:55:29.008Z,3.67
2023-07-27T06:58:00.313Z,3.45
2023-07-27T07:00:33.265Z,3.20
2023-07-27T07:03:04.815Z,3.88
2023-07-27T07:05:36.264Z,3.17
2023-07-27T07:08:07.734Z,4.05
2023-07-27T07:10:39.004Z,2.88
2023-07-27T07:13:09.992Z,3.05
2023-07-27T07:15:40.789Z,3.05
2023-07-27T07:18:12.042Z,2.83
2023-07-27T07:20:43.237Z,2.55
2023-07-27T07:23:14.321Z,3.03
2023-07-27T07:25:45.614Z,3.05
2023-07-27T07:28:16.821Z,3.10
2023-07-27T07:30:48.141Z,2.97
2023-07-27T07:33:19.398Z,2.83
2023-07-27T07:35:50.846Z,2.72
2023-07-27T07:38:22.213Z,2.63
2023-07-27T07:40:53.438Z,2.60
2023-07-27T07:43:24.896Z,2.55
2023-07-27T07:45:56.206Z,2.80
2023-07-27T07:48:27.530Z,3.25
2023-07-27T07:51:00.686Z,2.75
2023-07-27T07:53:35.275Z,2.70
2023-07-27T07:56:13.343Z,2.70
2023-07-27T07:58:45.912Z,2.42
2023-07-27T08:01:17.414Z,2.95
2023-07-27T08:03:48.874Z,2.40
2023-07-27T08:06:20.337Z,2.65
2023-07-27T08:08:53.488Z,2.83
2023-07-27T08:11:24.948Z,2.67
2023-07-27T08:14:01.250Z,2.38
2023-07-27T08:16:33.111Z,2.47
2023-07-27T08:19:04.802Z,2.08
2023-07-27T08:21:36.042Z,2.10
2023-07-27T08:24:08.104Z,2.17
2023-07-27T08:26:39.478Z,2.08
2023-07-27T08:29:10.811Z,1.95
2023-07-27T08:31:42.669Z,1.88
2023-07-27T08:34:13.941Z,1.92
2023-07-27T08:36:48.464Z,1.90
2023-07-27T08:39:19.726Z,1.70
2023-07-27T08:41:51.273Z,1.65
2023-07-27T08:44:23.091Z,1.60
2023-07-27T08:46:54.518Z,1.45
2023-07-27T08:49:25.834Z,1.40
2023-07-27T08:51:57.069Z,1.70
2023-07-27T08:54:28.350Z,1.20
2023-07-27T08:56:59.626Z,1.17
2023-07-27T08:59:31.120Z,1.23
2023-07-27T09:02:04.577Z,1.40
2023-07-27T09:04:38.027Z,1.20
2023-07-27T09:07:14.278Z,1.15
2023-07-27T09:09:52.185Z,1.42
2023-07-27T09:12:28.127Z,1.40
2023-07-27T09:15:29.727Z,1.33
2023-07-27T09:18:09.423Z,1.20
2023-07-27T09:20:44.817Z,1.27
2023-07-27T09:23:25.496Z,1.13
2023-07-27T09:26:00.568Z,1.15
2023-07-27T09:28:32.496Z,1.60
2023-07-27T09:31:04.636Z,1.20
2023-07-27T09:33:36.146Z,1.50
2023-07-27T09:36:12.282Z,1.50
2023-07-27T09:38:44.206Z,1.40
2023-07-27T09:41:16.948Z,1.30
2023-07-27T09:43:48.294Z,1.58
2023-07-27T09:46:22.274Z,1.40
2023-07-27T09:48:53.929Z,1.60
2023-07-27T09:51:28.552Z,1.30
2023-07-27T09:54:01.350Z,1.40
2023-07-27T09:56:33.619Z,1.52
2023-07-27T09:59:05.512Z,1.45
2023-07-27T10:01:37.834Z,1.42
2023-07-27T10:04:09.187Z,1.60
2023-07-27T10:06:40.580Z,1.60
2023-07-27T10:09:23.161Z,1.77
2023-07-27T10:12:01.815Z,1.58
2023-07-27T10:14:34.196Z,2.00
2023-07-27T10:17:09.248Z,1.30
2023-07-27T10:19:55.376Z,1.20
2023-07-27T10:22:26.317Z,1.40
2023-07-27T10:24:59.773Z,1.50
2023-07-27T10:27:31.351Z,1.48
2023-07-27T10:30:18.922Z,1.15
2023-07-27T10:36:02.952Z,1.00
2023-07-27T10:38:36.985Z,1.30
2023-07-27T10:41:24.474Z,1.08
2023-07-27T10:44:19.429Z,1.63
2023-07-27T10:46:55.670Z,1.40
2023-07-27T10:49:27.929Z,1.40
2023-07-27T10:52:02.515Z,1.60
2023-07-27T10:54:37.470Z,1.40
2023-07-27T10:57:11.009Z,1.60
2023-07-27T10:59:50.499Z,1.55
2023-07-27T11:02:33.485Z,1.40
2023-07-27T11:05:08.644Z,1.23
2023-07-27T11:07:41.518Z,1.55
2023-07-27T11:10:12.392Z,1.30
2023-07-27T11:12:58.652Z,1.40
2023-07-27T11:15:31.686Z,1.65
2023-07-27T11:18:01.341Z,1.70
2023-07-27T11:20:30.749Z,1.45
2023-07-27T11:23:00.666Z,1.50
2023-07-27T11:25:33.828Z,1.25
2023-07-27T11:28:05.041Z,1.60
2023-07-27T11:30:36.845Z,1.10
2023-07-27T11:33:06.979Z,1.50
2023-07-27T11:35:45.154Z,1.15
2023-07-27T11:38:14.251Z,1.10
2023-07-27T11:40:50.033Z,1.00
2023-07-27T11:43:19.091Z,1.35
2023-07-27T11:45:49.088Z,1.08
2023-07-27T11:48:18.010Z,1.38
2023-07-27T11:50:45.648Z,1.10
2023-07-27T11:53:17.551Z,1.05
2023-07-27T11:55:50.858Z,1.13
2023-07-27T11:58:18.942Z,1.05
2023-07-27T12:00:51.651Z,1.00
2023-07-27T12:03:25.567Z,0.90
2023-07-27T12:05:58.667Z,1.30
2023-07-27T12:11:03.691Z,1.38
2023-07-27T12:23:47.599Z,1.00
2023-07-27T12:28:48.499Z,0.80
2023-07-27T12:32:11.663Z,1.02
2023-07-27T12:34:07.655Z,1.00
2023-07-27T12:36:36.719Z,0.95
2023-07-27T12:39:05.727Z,0.90
2023-07-27T12:41:34.987Z,0.95
2023-07-27T12:44:04.362Z,1.00
2023-07-27T12:46:33.370Z,1.05
2023-07-27T12:49:02.351Z,1.08
2023-07-27T12:51:31.746Z,1.33
2023-07-27T12:54:05.251Z,1.27
2023-07-27T12:56:34.771Z,0.85
2023-07-27T12:59:03.858Z,1.00
2023-07-27T13:01:33.162Z,1.20
2023-07-27T13:04:02.435Z,0.95
2023-07-27T13:06:34.152Z,0.82
2023-07-27T13:09:04.108Z,1.10
2023-07-27T13:11:34.109Z,1.00
2023-07-27T13:14:04.585Z,1.00
2023-07-27T13:16:35.878Z,0.80
2023-07-27T13:19:05.728Z,0.63
2023-07-27T13:21:34.804Z,0.50
2023-07-27T13:24:04.207Z,0.60
2023-07-27T13:26:33.108Z,0.68
2023-07-27T13:29:02.072Z,0.57
2023-07-27T13:31:31.201Z,0.88
2023-07-27T13:34:01.095Z,0.63
2023-07-27T13:36:33.021Z,0.90
2023-07-27T13:39:03.355Z,1.33
2023-07-27T13:41:32.687Z,0.85
2023-07-27T13:44:01.962Z,0.73
2023-07-27T13:46:30.874Z,1.20
2023-07-27T13:48:59.862Z,0.77
2023-07-27T13:51:28.885Z,1.05
2023-07-27T13:53:58.285Z,1.20
2023-07-27T13:56:27.255Z,0.90
2023-07-27T13:58:56.503Z,1.00
2023-07-27T14:01:25.628Z,0.80
2023-07-27T14:03:54.778Z,1.10
2023-07-27T14:06:23.911Z,1.00
2023-07-27T14:08:56.390Z,1.48
2023-07-27T14:11:25.571Z,0.98
2023-07-27T14:13:56.272Z,1.50
2023-07-27T14:16:27.007Z,1.30
2023-07-27T14:18:57.800Z,4.25
2023-07-27T14:21:28.589Z,1.50
2023-07-27T14:23:59.321Z,1.10
2023-07-27T14:26:30.753Z,1.00
2023-07-27T14:29:01.459Z,1.20
2023-07-27T14:31:33.104Z,0.95
2023-07-27T14:34:04.747Z,0.80
2023-07-27T14:41:43.209Z,1.15
2023-07-27T14:44:14.425Z,0.88
2023-07-27T14:46:45.875Z,1.02
2023-07-27T14:49:23.910Z,1.48
2023-07-27T14:51:55.146Z,0.93
2023-07-27T14:54:25.948Z,1.27
2023-07-27T14:56:56.840Z,1.55
2023-07-27T14:59:43.374Z,1.73
2023-07-27T15:02:13.866Z,0.98
2023-07-27T15:07:18.801Z,1.08
2023-07-27T15:09:49.345Z,1.40
2023-07-27T15:12:18.529Z,4.22
2023-07-27T15:14:47.654Z,1.13
2023-07-27T15:17:16.831Z,1.20
2023-07-27T15:19:47.973Z,0.93
2023-07-27T15:22:17.410Z,1.10
2023-07-27T15:24:46.550Z,0.60
2023-07-27T15:27:15.798Z,0.70
2023-07-27T15:29:55.810Z,0.63
2023-07-27T15:32:25.315Z,0.73
2023-07-27T15:34:54.501Z,0.70
2023-07-27T15:37:23.642Z,0.57
2023-07-27T15:39:52.887Z,0.82
2023-07-27T15:42:23.014Z,0.70
2023-07-27T15:44:52.217Z,0.68
2023-07-27T15:47:21.372Z,0.80
2023-07-27T15:49:50.507Z,0.90
2023-07-27T15:52:19.663Z,0.82
2023-07-27T15:54:48.882Z,0.82
2023-07-27T15:57:18.121Z,0.90
2023-07-27T15:59:47.416Z,0.80
2023-07-27T16:02:16.679Z,0.70
2023-07-27T16:04:45.797Z,0.93
2023-07-27T16:07:14.990Z,0.60
2023-07-27T16:09:44.249Z,0.90
2023-07-27T16:12:13.374Z,0.70
2023-07-27T16:14:42.532Z,0.70
2023-07-27T16:17:11.730Z,0.68
2023-07-27T16:19:42.166Z,0.70
2023-07-27T16:22:13.306Z,1.00
2023-07-27T16:24:42.524Z,0.70
2023-07-27T16:27:11.626Z,1.10
2023-07-27T16:29:40.743Z,0.80
2023-07-27T16:32:11.278Z,0.90
2023-07-27T16:34:40.741Z,0.90
2023-07-27T16:37:09.829Z,1.02
2023-07-27T16:39:39.044Z,0.63
2023-07-27T16:42:09.910Z,0.90
2023-07-27T16:44:40.604Z,0.47
2023-07-27T16:47:10.923Z,0.52
2023-07-27T16:49:40.096Z,0.68
2023-07-27T16:52:09.197Z,0.68
2023-07-27T16:54:38.404Z,0.65
2023-07-27T16:57:07.732Z,1.00
2023-07-27T16:59:36.907Z,0.70
2023-07-27T17:02:06.608Z,0.80
2023-07-27T17:04:36.915Z,0.80
2023-07-27T17:07:06.476Z,0.90
2023-07-27T17:09:39.608Z,1.00
2023-07-27T17:12:10.869Z,0.60
2023-07-27T17:14:43.099Z,0.80
2023-07-27T17:17:14.121Z,1.33
2023-07-27T17:19:47.867Z,1.05
2023-07-27T17:22:25.318Z,0.80
2023-07-27T17:24:56.570Z,0.88
2023-07-27T17:27:27.922Z,0.77
2023-07-27T17:29:59.182Z,0.95
2023-07-27T17:32:30.335Z,0.70
2023-07-27T17:35:01.172Z,0.90
2023-07-27T17:37:31.960Z,0.80
2023-07-27T17:40:02.779Z,0.80
2023-07-27T17:42:33.633Z,0.85
2023-07-27T17:45:02.933Z,0.70
2023-07-27T17:47:32.254Z,0.80
2023-07-27T17:50:01.454Z,1.08
2023-07-27T17:52:30.569Z,1.00
2023-07-27T17:54:59.609Z,0.82
2023-07-27T17:57:28.853Z,0.95
2023-07-27T17:59:57.960Z,1.15
2023-07-27T18:02:27.071Z,0.80
2023-07-27T18:04:56.188Z,4.93
2023-07-27T18:07:25.430Z,2.65
2023-07-27T18:09:55.122Z,1.70
2023-07-27T18:12:24.670Z,0.90
2023-07-27T18:14:53.740Z,1.77
2023-07-27T18:17:21.820Z,1.40
2023-07-27T18:19:49.364Z,1.13
2023-07-27T18:22:17.089Z,0.90
2023-07-27T18:24:45.644Z,1.40
2023-07-27T18:27:13.319Z,0.60
2023-07-27T18:29:41.933Z,0.55
2023-07-27T18:32:10.268Z,0.50
2023-07-27T18:34:38.105Z,0.43
2023-07-27T18:37:07.509Z,0.30
2023-07-27T18:39:35.696Z,0.30
2023-07-27T18:42:05.326Z,0.15
2023-07-27T18:44:33.663Z,0.30
2023-07-27T18:47:01.323Z,0.30
2023-07-27T18:49:29.434Z,0.40
2023-07-27T18:51:57.149Z,0.55
2023-07-27T18:54:24.880Z,0.50
2023-07-27T18:56:52.500Z,0.40
2023-07-27T18:59:20.180Z,0.60
2023-07-27T19:01:47.993Z,0.40
2023-07-27T19:04:15.761Z,0.50
2023-07-27T19:06:43.485Z,0.40
2023-07-27T19:09:11.248Z,0.65
2023-07-27T19:11:38.926Z,0.80
2023-07-27T19:14:06.629Z,0.80
2023-07-27T19:16:34.287Z,0.98
2023-07-27T19:19:02.007Z,0.70
2023-07-27T19:21:29.633Z,0.90
2023-07-27T19:23:58.116Z,1.00
2023-07-27T19:26:29.277Z,0.90
2023-07-27T19:28:57.942Z,0.82
2023-07-27T19:31:26.761Z,0.70
2023-07-27T19:33:57.323Z,0.80
2023-07-27T19:36:27.350Z,0.90
2023-07-27T19:38:58.049Z,0.80
2023-07-27T19:41:25.716Z,0.88
2023-07-27T19:43:53.930Z,0.93
2023-07-27T19:46:21.677Z,1.00
2023-07-27T19:48:49.452Z,1.13
2023-07-27T19:51:17.134Z,1.10
2023-07-27T19:53:45.326Z,1.40
2023-07-27T19:56:15.058Z,1.52
2023-07-27T19:58:45.291Z,1.40
2023-07-27T20:01:14.219Z,1.10
2023-07-27T20:03:45.624Z,1.38
2023-07-27T20:06:13.360Z,1.25
2023-07-27T20:08:47.524Z,1.35
2023-07-27T20:11:16.675Z,1.50
2023-07-27T20:13:46.428Z,1.55
2023-07-27T20:16:14.947Z,1.30
2023-07-27T20:18:45.019Z,1.30
2023-07-27T20:21:14.488Z,1.17
2023-07-27T20:23:45.673Z,1.27
2023-07-27T20:26:13.373Z,1.30
2023-07-27T20:28:41.364Z,1.17
2023-07-27T20:31:09.941Z,1.10
2023-07-27T20:33:37.828Z,0.98
2023-07-27T20:36:07.321Z,0.95
2023-07-27T20:38:35.096Z,1.00
2023-07-27T20:41:04.925Z,0.85
2023-07-27T20:43:33.039Z,1.05
2023-07-27T20:46:04.871Z,0.57
2023-07-27T20:48:34.826Z,0.57
2023-07-27T20:51:08.266Z,0.65
2023-07-27T20:53:37.113Z,0.75
2023-07-27T20:56:19.466Z,1.02
2023-07-27T20:58:47.439Z,0.90
2023-07-27T21:01:15.654Z,1.15
2023-07-27T21:03:43.519Z,1.20
2023-07-27T21:06:11.258Z,1.10
2023-07-27T21:08:40.171Z,1.40
2023-07-27T21:11:08.949Z,1.30
2023-07-27T21:13:38.878Z,1.30
2023-07-27T21:16:09.764Z,1.40
2023-07-27T21:18:38.566Z,1.30
2023-07-27T21:21:20.935Z,1.35
2023-07-27T21:23:53.500Z,1.40
2023-07-27T21:26:22.847Z,1.40
2023-07-27T21:28:50.896Z,1.58
2023-07-27T21:31:18.560Z,1.70
2023-07-27T21:33:46.357Z,1.95
2023-07-27T21:36:14.035Z,1.70
2023-07-27T21:38:42.080Z,1.73
2023-07-27T21:41:12.844Z,1.42
2023-07-27T21:43:40.615Z,1.40
2023-07-27T21:46:09.374Z,1.70
2023-07-27T21:48:37.104Z,2.00
2023-07-27T21:51:05.173Z,1.58
2023-07-27T21:53:32.802Z,1.80
2023-07-27T21:56:00.581Z,2.25
2023-07-27T21:58:28.210Z,1.58
2023-07-27T22:00:56.475Z,1.70
2023-07-27T22:03:24.108Z,1.58
2023-07-27T22:05:51.803Z,1.65
2023-07-27T22:08:19.423Z,1.67
2023-07-27T22:10:47.085Z,1.50
2023-07-27T22:13:14.807Z,1.50
2023-07-27T22:15:42.527Z,1.50
2023-07-27T22:18:10.244Z,1.40
2023-07-27T22:20:43.976Z,1.10
2023-07-27T22:23:12.820Z,1.25
2023-07-27T22:25:44.209Z,1.10
2023-07-27T22:28:12.937Z,1.30
2023-07-27T22:30:47.883Z,1.00
2023-07-27T22:33:16.393Z,1.30
2023-07-27T22:35:47.714Z,1.30
2023-07-27T22:38:16.399Z,1.13
2023-07-27T22:40:58.869Z,1.30
2023-07-27T22:43:27.212Z,0.80
2023-07-27T22:45:57.493Z,1.02
2023-07-27T22:48:25.485Z,1.75
2023-07-27T22:50:53.511Z,1.08
2023-07-27T22:53:21.209Z,1.17
2023-07-27T22:55:51.028Z,1.13
2023-07-27T22:58:19.502Z,1.30
2023-07-27T23:00:47.612Z,1.20
2023-07-27T23:03:15.342Z,1.33
2023-07-27T23:05:43.518Z,1.40
2023-07-27T23:08:11.271Z,1.45
2023-07-27T23:10:42.814Z,1.40
2023-07-27T23:13:10.494Z,1.58
2023-07-27T23:15:39.710Z,1.52
2023-07-27T23:18:07.479Z,1.40
2023-07-27T23:20:35.250Z,1.65
2023-07-27T23:23:02.999Z,1.52
2023-07-27T23:25:30.857Z,1.67
2023-07-27T23:28:01.342Z,1.38
2023-07-27T23:30:30.893Z,1.65
2023-07-27T23:32:59.495Z,1.63
2023-07-27T23:35:27.285Z,1.92
2023-07-27T23:37:54.944Z,2.00
2023-07-27T23:40:22.698Z,1.33
2023-07-27T23:42:50.356Z,2.20
2023-07-27T23:45:18.177Z,1.60
2023-07-27T23:47:45.862Z,1.90
2023-07-27T23:50:13.571Z,1.90
2023-07-27T23:52:41.287Z,1.75
2023-07-27T23:55:09.356Z,2.40
2023-07-27T23:57:37.004Z,3.13
